Time;durP1;ratioP1;P1;durP2;ratioP2;P2;SDS_P1;SDS_P2;PMS_P1;PMS_P2;Temp;Humidity;BMP_temperature;BMP_pressure;BME280_temperature;BME280_humidity;BME280_pressure;Samples;Min_cycle;Max_cycle;Signal;HPM_P1;HPM_P2
2023/03/21 00:01:39;;;;;;;54.28;23.08;;;;;;;;;;5151786;27;20053;-82
2023/03/21 00:04:05;;;;;;;50.42;21.80;;;;;;;;;;5143136;27;20130;-82
2023/03/21 00:06:31;;;;;;;52.38;22.63;;;;;;;;;;5155903;27;20087;-81
2023/03/21 00:08:57;;;;;;;52.95;23.42;;;;;;;;;;5139280;27;20394;-83
2023/03/21 00:11:23;;;;;;;57.05;23.52;;;;;;;;;;5152927;27;20118;-83
2023/03/21 00:13:49;;;;;;;52.08;22.05;;;;;;;;;;5132778;27;20055;-83
2023/03/21 00:16:17;;;;;;;50.08;22.50;;;;;;;;;;5133244;27;20043;-83
2023/03/21 00:18:47;;;;;;;54.85;22.90;;;;;;;;;;5132979;27;20592;-83
2023/03/21 00:21:17;;;;;;;53.83;23.45;;;;;;;;;;5147721;27;20054;-83
2023/03/21 00:23:45;;;;;;;54.92;23.33;;;;;;;;;;5140446;27;20039;-82
2023/03/21 00:26:11;;;;;;;52.33;23.58;;;;;;;;;;5136179;27;20130;-82
2023/03/21 00:28:37;;;;;;;54.95;23.25;;;;;;;;;;5138765;27;20410;-82
2023/03/21 00:31:04;;;;;;;50.28;23.10;;;;;;;;;;5140869;27;20035;-82
2023/03/21 00:33:31;;;;;;;49.28;22.50;;;;;;;;;;5136893;27;20042;-82
2023/03/21 00:35:57;;;;;;;60.13;24.85;;;;;;;;;;5135601;27;20034;-81
2023/03/21 00:38:23;;;;;;;54.45;24.00;;;;;;;;;;5137761;27;20039;-82
2023/03/21 00:40:50;;;;;;;52.80;22.98;;;;;;;;;;5115308;27;20437;-82
2023/03/21 00:43:18;;;;;;;51.10;22.98;;;;;;;;;;5147295;27;20626;-82
2023/03/21 00:45:45;;;;;;;58.25;24.08;;;;;;;;;;5139270;27;20049;-82
2023/03/21 00:48:11;;;;;;;58.28;24.88;;;;;;;;;;5139581;27;20057;-82
2023/03/21 00:50:38;;;;;;;61.85;25.15;;;;;;;;;;5151719;27;20522;-82
2023/03/21 00:53:05;;;;;;;58.97;23.42;;;;;;;;;;5152565;27;20046;-82
2023/03/21 00:55:31;;;;;;;60.90;23.77;;;;;;;;;;5152887;27;20035;-82
2023/03/21 00:57:57;;;;;;;59.42;23.48;;;;;;;;;;5152554;27;20045;-82
2023/03/21 01:00:23;;;;;;;49.55;21.10;;;;;;;;;;5137564;27;20456;-83
2023/03/21 01:02:55;;;;;;;58.42;22.45;;;;;;;;;;5139575;27;20066;-82
2023/03/21 01:06:01;;;;;;;56.13;22.50;;;;;;;;;;5122375;27;20510;-83
2023/03/21 01:08:09;;;;;;;51.65;21.80;;;;;;;;;;5138446;27;20043;-83
2023/03/21 01:10:37;;;;;;;55.65;23.67;;;;;;;;;;5135251;27;20043;-82
2023/03/21 01:13:03;;;;;;;58.42;22.60;;;;;;;;;;5158017;27;20407;-82
2023/03/21 01:15:29;;;;;;;57.15;23.58;;;;;;;;;;5155936;27;20052;-82
2023/03/21 01:17:55;;;;;;;55.83;22.90;;;;;;;;;;5139835;27;20042;-82
2023/03/21 01:20:22;;;;;;;58.42;22.60;;;;;;;;;;5136925;27;20192;-82
2023/03/21 01:22:48;;;;;;;60.60;23.50;;;;;;;;;;5156031;27;20042;-83
2023/03/21 01:25:14;;;;;;;57.88;22.45;;;;;;;;;;5155318;27;20129;-83
2023/03/21 01:27:40;;;;;;;52.13;22.00;;;;;;;;;;5174531;27;20041;-81
2023/03/21 01:30:06;;;;;;;52.97;22.10;;;;;;;;;;5155380;27;20062;-83
2023/03/21 01:32:32;;;;;;;57.03;23.38;;;;;;;;;;5156433;27;20035;-83
2023/03/21 01:34:59;;;;;;;49.90;21.23;;;;;;;;;;5139074;27;20057;-82
2023/03/21 01:37:25;;;;;;;55.08;22.05;;;;;;;;;;5138466;27;20078;-82
2023/03/21 01:39:51;;;;;;;59.88;22.95;;;;;;;;;;5156013;27;20528;-82
2023/03/21 01:42:17;;;;;;;58.47;22.20;;;;;;;;;;5140778;27;20045;-82
2023/03/21 01:44:55;;;;;;;53.95;21.48;;;;;;;;;;5155925;27;20431;-82
2023/03/21 01:47:21;;;;;;;55.13;20.40;;;;;;;;;;5132803;27;20046;-82
2023/03/21 01:49:51;;;;;;;42.88;18.17;;;;;;;;;;5129927;27;20499;-82
2023/03/21 01:52:19;;;;;;;58.15;20.10;;;;;;;;;;5141423;27;20394;-83
2023/03/21 01:54:46;;;;;;;55.88;19.95;;;;;;;;;;5155833;27;20078;-83
2023/03/21 01:57:16;;;;;;;51.38;18.83;;;;;;;;;;5141192;27;20047;-83
2023/03/21 01:59:50;;;;;;;49.78;17.98;;;;;;;;;;5155984;27;20164;-82
2023/03/21 02:02:27;;;;;;;49.90;17.55;;;;;;;;;;5151756;27;20046;-83
2023/03/21 02:04:56;;;;;;;50.25;17.92;;;;;;;;;;5145852;27;20126;-83
2023/03/21 02:07:36;;;;;;;45.67;17.05;;;;;;;;;;5127455;27;20056;-82
2023/03/21 02:10:03;;;;;;;46.90;16.17;;;;;;;;;;5155564;27;20030;-82
2023/03/21 02:12:29;;;;;;;45.08;16.45;;;;;;;;;;5141936;27;20038;-82
2023/03/21 02:14:56;;;;;;;42.47;14.75;;;;;;;;;;5158757;27;20078;-82
2023/03/21 02:17:35;;;;;;;47.08;15.98;;;;;;;;;;5158673;27;20127;-82
2023/03/21 02:20:05;;;;;;;39.83;14.82;;;;;;;;;;5153411;27;20491;-82
2023/03/21 02:22:41;;;;;;;42.20;14.15;;;;;;;;;;5133265;27;20053;-82
2023/03/21 02:25:18;;;;;;;40.55;13.68;;;;;;;;;;5158579;27;20125;-82
2023/03/21 02:27:49;;;;;;;36.78;13.38;;;;;;;;;;5158866;27;20038;-82
2023/03/21 02:30:30;;;;;;;39.72;14.23;;;;;;;;;;5159097;27;20407;-83
2023/03/21 02:33:14;;;;;;;34.80;12.50;;;;;;;;;;5132326;27;20482;-84
2023/03/21 02:35:52;;;;;;;34.03;12.93;;;;;;;;;;5144061;27;20034;-82
2023/03/21 02:38:31;;;;;;;34.70;12.80;;;;;;;;;;5137621;27;20046;-83
2023/03/21 02:41:23;;;;;;;35.28;13.15;;;;;;;;;;5120904;27;20039;-83
2023/03/21 02:43:58;;;;;;;30.05;12.85;;;;;;;;;;5094739;27;20055;-84
2023/03/21 02:46:53;;;;;;;31.17;12.45;;;;;;;;;;5128930;27;20517;-84
2023/03/21 02:49:25;;;;;;;35.72;12.93;;;;;;;;;;5048897;27;20085;-83
2023/03/21 02:51:51;;;;;;;33.40;12.63;;;;;;;;;;5138193;27;20095;-83
2023/03/21 02:54:19;;;;;;;30.55;13.07;;;;;;;;;;5121867;27;20485;-82
2023/03/21 02:56:47;;;;;;;33.15;13.80;;;;;;;;;;5158615;27;20502;-82
2023/03/21 02:59:15;;;;;;;35.13;13.77;;;;;;;;;;5158723;27;20403;-83
2023/03/21 03:01:41;;;;;;;37.20;14.55;;;;;;;;;;5154898;27;20027;-83
2023/03/21 03:04:21;;;;;;;36.60;14.82;;;;;;;;;;5130927;27;20386;-82
2023/03/21 03:07:05;;;;;;;36.35;14.77;;;;;;;;;;5119501;27;20099;-82
2023/03/21 03:09:37;;;;;;;34.13;13.95;;;;;;;;;;5152134;27;20072;-82
2023/03/21 03:12:18;;;;;;;38.97;14.38;;;;;;;;;;5176779;27;20523;-82
2023/03/21 03:15:03;;;;;;;41.58;16.10;;;;;;;;;;5143713;27;20051;-83
2023/03/21 03:17:33;;;;;;;34.55;14.50;;;;;;;;;;5146799;27;20046;-83
2023/03/21 03:19:59;;;;;;;40.88;15.82;;;;;;;;;;5139654;27;20083;-82
2023/03/21 03:22:29;;;;;;;43.58;15.35;;;;;;;;;;5157918;27;20041;-83
2023/03/21 03:24:58;;;;;;;38.72;15.95;;;;;;;;;;5161344;27;20035;-83
2023/03/21 03:27:28;;;;;;;41.67;16.17;;;;;;;;;;5144396;27;20069;-82
2023/03/21 03:29:56;;;;;;;40.92;16.73;;;;;;;;;;5157900;27;20094;-83
2023/03/21 03:32:24;;;;;;;46.63;16.90;;;;;;;;;;5151449;27;20122;-82
2023/03/21 03:34:55;;;;;;;39.78;16.25;;;;;;;;;;5120133;27;20034;-82
2023/03/21 03:37:25;;;;;;;44.95;17.33;;;;;;;;;;5124913;27;20046;-82
2023/03/21 03:39:55;;;;;;;39.55;16.92;;;;;;;;;;5157790;27;20387;-82
2023/03/21 03:42:28;;;;;;;38.85;16.50;;;;;;;;;;5152980;27;20125;-82
2023/03/21 03:44:54;;;;;;;47.35;17.83;;;;;;;;;;5130467;27;20043;-82
2023/03/21 03:47:28;;;;;;;49.50;18.83;;;;;;;;;;5142902;27;20054;-83
2023/03/21 03:50:02;;;;;;;53.15;19.00;;;;;;;;;;5140798;27;20125;-83
2023/03/21 03:52:40;;;;;;;53.50;17.52;;;;;;;;;;5140281;27;20047;-83
2023/03/21 03:55:06;;;;;;;52.72;18.38;;;;;;;;;;5147564;27;20041;-82
2023/03/21 03:57:33;;;;;;;55.05;19.08;;;;;;;;;;5157671;27;20565;-83
2023/03/21 03:59:59;;;;;;;50.55;18.58;;;;;;;;;;5148581;27;20034;-82
2023/03/21 04:02:25;;;;;;;57.45;18.23;;;;;;;;;;5132965;27;20049;-83
2023/03/21 04:04:52;;;;;;;47.55;17.13;;;;;;;;;;5119618;27;20117;-82
2023/03/21 04:07:21;;;;;;;51.97;18.05;;;;;;;;;;5099074;27;20116;-83
2023/03/21 04:09:47;;;;;;;50.45;17.33;;;;;;;;;;5155105;27;20037;-82
2023/03/21 04:12:13;;;;;;;48.95;16.75;;;;;;;;;;5156989;27;20098;-82
2023/03/21 04:14:40;;;;;;;47.85;16.90;;;;;;;;;;5124806;27;20075;-82
2023/03/21 04:17:06;;;;;;;53.72;17.40;;;;;;;;;;5156586;27;20038;-82
2023/03/21 04:19:32;;;;;;;47.53;16.90;;;;;;;;;;5124570;27;20082;-82
2023/03/21 04:21:58;;;;;;;48.83;17.38;;;;;;;;;;5156541;27;20041;-82
2023/03/21 04:24:25;;;;;;;49.03;18.42;;;;;;;;;;5156185;27;20143;-82
2023/03/21 04:26:52;;;;;;;45.00;16.80;;;;;;;;;;5156900;27;20474;-82
2023/03/21 04:29:19;;;;;;;46.08;16.98;;;;;;;;;;5139072;27;20389;-83
2023/03/21 04:31:48;;;;;;;49.80;18.10;;;;;;;;;;5129496;27;20042;-83
2023/03/21 04:34:14;;;;;;;47.65;17.52;;;;;;;;;;5147742;27;20537;-83
2023/03/21 04:36:48;;;;;;;49.13;17.45;;;;;;;;;;5153235;27;20482;-83
2023/03/21 04:39:15;;;;;;;48.60;17.80;;;;;;;;;;5146291;27;20078;-82
2023/03/21 04:41:42;;;;;;;49.17;18.33;;;;;;;;;;5151494;27;20050;-82
2023/03/21 04:44:08;;;;;;;46.97;18.52;;;;;;;;;;5153190;27;20530;-83
2023/03/21 04:46:34;;;;;;;47.10;18.48;;;;;;;;;;5136037;27;20081;-83
2023/03/21 04:49:00;;;;;;;44.72;18.52;;;;;;;;;;5150629;27;20042;-83
2023/03/21 04:51:26;;;;;;;43.15;18.40;;;;;;;;;;5136126;27;20044;-83
2023/03/21 04:53:59;;;;;;;43.30;18.15;;;;;;;;;;5115832;27;20718;-82
2023/03/21 04:56:31;;;;;;;46.38;18.83;;;;;;;;;;5156486;27;20080;-82
2023/03/21 04:59:01;;;;;;;49.97;19.20;;;;;;;;;;5156488;27;20502;-82
2023/03/21 05:01:30;;;;;;;48.92;19.77;;;;;;;;;;5156546;27;20087;-82
2023/03/21 05:03:57;;;;;;;54.40;21.08;;;;;;;;;;5127490;27;20069;-82
2023/03/21 05:06:23;;;;;;;48.28;20.23;;;;;;;;;;5133492;27;20066;-82
2023/03/21 05:08:49;;;;;;;49.42;20.15;;;;;;;;;;5134921;27;20098;-82
2023/03/21 05:11:15;;;;;;;51.83;21.35;;;;;;;;;;5118098;27;20042;-82
2023/03/21 05:13:42;;;;;;;51.22;20.63;;;;;;;;;;5134695;27;21126;-82
2023/03/21 05:16:08;;;;;;;50.33;20.40;;;;;;;;;;5118014;27;20046;-82
2023/03/21 05:18:37;;;;;;;54.22;21.60;;;;;;;;;;5134970;27;20080;-82
2023/03/21 05:21:06;;;;;;;52.83;20.60;;;;;;;;;;5135867;27;20127;-83
2023/03/21 05:23:37;;;;;;;52.30;21.40;;;;;;;;;;5114548;27;20082;-82
2023/03/21 05:26:04;;;;;;;55.75;22.40;;;;;;;;;;5118533;27;20038;-82
2023/03/21 05:28:31;;;;;;;56.50;21.67;;;;;;;;;;5135304;27;20587;-83
2023/03/21 05:30:57;;;;;;;58.30;22.02;;;;;;;;;;5130752;27;20493;-83
2023/03/21 05:33:23;;;;;;;60.55;23.42;;;;;;;;;;5117677;28;20118;-83
2023/03/21 05:35:52;;;;;;;61.42;23.75;;;;;;;;;;5117992;27;20034;-82
2023/03/21 05:38:18;;;;;;;57.13;22.67;;;;;;;;;;5153305;27;20050;-82
2023/03/21 05:40:48;;;;;;;62.10;24.42;;;;;;;;;;5140493;27;20426;-82
2023/03/21 05:43:14;;;;;;;54.65;21.95;;;;;;;;;;5142950;27;20042;-83
2023/03/21 05:45:40;;;;;;;59.70;23.10;;;;;;;;;;5143156;27;20486;-83
2023/03/21 05:48:06;;;;;;;58.63;22.33;;;;;;;;;;5139339;27;20038;-82
2023/03/21 05:50:32;;;;;;;59.53;24.02;;;;;;;;;;5153588;27;20042;-82
2023/03/21 05:52:58;;;;;;;54.55;22.58;;;;;;;;;;5159491;27;20070;-82
2023/03/21 05:55:24;;;;;;;53.08;21.98;;;;;;;;;;5146352;27;20069;-82
2023/03/21 05:57:50;;;;;;;48.22;20.80;;;;;;;;;;5139446;27;20502;-82
2023/03/21 06:00:17;;;;;;;55.35;21.85;;;;;;;;;;5121549;27;20034;-82
2023/03/21 06:02:44;;;;;;;48.83;20.40;;;;;;;;;;5138506;27;20038;-83
2023/03/21 06:05:10;;;;;;;43.53;20.23;;;;;;;;;;5160340;27;20042;-84
2023/03/21 06:07:36;;;;;;;45.83;19.90;;;;;;;;;;5158957;27;20038;-84
2023/03/21 06:10:04;;;;;;;46.28;20.23;;;;;;;;;;5122388;27;20035;-84
2023/03/21 06:12:30;;;;;;;45.25;19.17;;;;;;;;;;5139802;27;20487;-84
2023/03/21 06:14:56;;;;;;;80.90;48.70;;;;;;;;;;5123958;27;20045;-83
2023/03/21 06:17:22;;;;;;;42.28;19.77;;;;;;;;;;5138552;27;20046;-82
2023/03/21 06:19:49;;;;;;;41.20;18.92;;;;;;;;;;5137795;27;20079;-82
2023/03/21 06:22:15;;;;;;;38.75;17.48;;;;;;;;;;5138534;27;20078;-82
2023/03/21 06:24:41;;;;;;;36.00;17.63;;;;;;;;;;5138774;27;20063;-81
2023/03/21 06:27:07;;;;;;;41.33;17.75;;;;;;;;;;5125776;27;20053;-82
2023/03/21 06:29:34;;;;;;;34.45;16.95;;;;;;;;;;5138421;27;20365;-82
2023/03/21 06:32:00;;;;;;;38.00;17.40;;;;;;;;;;5123883;27;20042;-82
2023/03/21 06:34:26;;;;;;;32.88;16.30;;;;;;;;;;5138281;27;20043;-82
2023/03/21 06:36:53;;;;;;;35.58;16.55;;;;;;;;;;5121024;27;20501;-83
2023/03/21 06:39:20;;;;;;;35.22;16.88;;;;;;;;;;5132134;27;20571;-84
2023/03/21 06:41:46;;;;;;;33.47;16.60;;;;;;;;;;5118475;27;20131;-84
2023/03/21 06:44:12;;;;;;;31.27;15.45;;;;;;;;;;5118181;27;20077;-84
2023/03/21 06:46:38;;;;;;;35.15;16.08;;;;;;;;;;5135388;27;20050;-84
2023/03/21 06:49:04;;;;;;;31.60;15.68;;;;;;;;;;5135021;27;20530;-85
2023/03/21 06:51:30;;;;;;;30.70;16.23;;;;;;;;;;5118172;27;20076;-85
2023/03/21 06:53:56;;;;;;;31.35;15.75;;;;;;;;;;5135130;27;20036;-85
2023/03/21 06:56:22;;;;;;;27.38;14.70;;;;;;;;;;5135152;27;20039;-85
2023/03/21 06:58:49;;;;;;;30.35;15.80;;;;;;;;;;5118045;27;20119;-85
2023/03/21 07:01:15;;;;;;;27.42;14.90;;;;;;;;;;5125958;27;20614;-85
2023/03/21 07:03:41;;;;;;;28.02;14.27;;;;;;;;;;5136167;27;20039;-82
2023/03/21 07:06:10;;;;;;;27.08;14.45;;;;;;;;;;5154636;27;20039;-82
2023/03/21 07:08:37;;;;;;;27.52;14.77;;;;;;;;;;5154543;27;20039;-82
2023/03/21 07:11:03;;;;;;;26.27;14.02;;;;;;;;;;5137313;27;20073;-82
2023/03/21 07:13:29;;;;;;;22.52;13.27;;;;;;;;;;5154306;27;20101;-83
2023/03/21 07:15:56;;;;;;;24.83;13.63;;;;;;;;;;5154312;27;20042;-82
2023/03/21 07:18:22;;;;;;;23.65;13.25;;;;;;;;;;5148768;27;20384;-82
2023/03/21 07:20:50;;;;;;;24.33;13.38;;;;;;;;;;5145749;27;20387;-83
2023/03/21 07:23:21;;;;;;;22.33;13.48;;;;;;;;;;5140025;27;20515;-83
2023/03/21 07:25:47;;;;;;;25.33;14.77;;;;;;;;;;5154166;27;20049;-82
2023/03/21 07:28:15;;;;;;;28.80;15.23;;;;;;;;;;5137015;27;20122;-82
2023/03/21 07:30:41;;;;;;;26.75;15.00;;;;;;;;;;5136849;27;20436;-82
2023/03/21 07:33:07;;;;;;;27.58;15.10;;;;;;;;;;5145880;27;20045;-84
2023/03/21 07:35:35;;;;;;;27.27;15.60;;;;;;;;;;5155517;27;20050;-85
2023/03/21 07:38:02;;;;;;;27.67;15.02;;;;;;;;;;5149960;27;20047;-85
2023/03/21 07:40:28;;;;;;;28.60;15.38;;;;;;;;;;5134316;27;20039;-85
2023/03/21 07:42:54;;;;;;;27.67;16.20;;;;;;;;;;5134120;27;20043;-85
2023/03/21 07:45:22;;;;;;;31.17;18.15;;;;;;;;;;5134422;27;20055;-85
2023/03/21 07:47:48;;;;;;;28.88;17.17;;;;;;;;;;5133608;27;20040;-82
2023/03/21 07:50:15;;;;;;;31.63;18.35;;;;;;;;;;5111988;27;20502;-82
2023/03/21 07:52:41;;;;;;;33.08;17.88;;;;;;;;;;5136758;27;20053;-82
2023/03/21 07:55:07;;;;;;;36.88;19.50;;;;;;;;;;5136812;27;20107;-85
2023/03/21 07:57:34;;;;;;;36.70;20.33;;;;;;;;;;5140309;27;20147;-84
2023/03/21 08:00:00;;;;;;;39.28;20.48;;;;;;;;;;5145926;27;20445;-84
2023/03/21 08:02:26;;;;;;;37.70;19.80;;;;;;;;;;5134657;27;20039;-85
2023/03/21 08:04:52;;;;;;;35.97;20.10;;;;;;;;;;5133288;27;20035;-85
2023/03/21 08:07:18;;;;;;;37.03;19.52;;;;;;;;;;5128919;27;20049;-81
2023/03/21 08:09:44;;;;;;;36.35;20.15;;;;;;;;;;5153897;27;20125;-85
2023/03/21 08:12:11;;;;;;;36.70;19.75;;;;;;;;;;5126183;27;20571;-84
2023/03/21 08:14:37;;;;;;;36.58;20.30;;;;;;;;;;5133045;27;20061;-85
2023/03/21 08:17:04;;;;;;;34.70;19.85;;;;;;;;;;5116267;27;20035;-85
2023/03/21 08:19:30;;;;;;;36.38;20.38;;;;;;;;;;5147821;27;20081;-85
2023/03/21 08:21:58;;;;;;;38.88;21.00;;;;;;;;;;5116408;27;20126;-85
2023/03/21 08:24:25;;;;;;;40.80;21.13;;;;;;;;;;5133392;27;20184;-85
2023/03/21 08:26:51;;;;;;;39.42;21.15;;;;;;;;;;5133386;27;20092;-85
2023/03/21 08:29:17;;;;;;;46.45;21.73;;;;;;;;;;5133092;27;20039;-85
2023/03/21 08:31:43;;;;;;;38.70;20.83;;;;;;;;;;5136974;27;20035;-82
2023/03/21 08:34:09;;;;;;;40.45;21.30;;;;;;;;;;5152643;27;20083;-83
2023/03/21 08:36:36;;;;;;;37.75;19.55;;;;;;;;;;5153427;27;20505;-82
2023/03/21 08:39:06;;;;;;;39.78;21.00;;;;;;;;;;5153906;27;20043;-85
2023/03/21 08:41:32;;;;;;;43.03;20.83;;;;;;;;;;5152904;27;20092;-83
2023/03/21 08:43:58;;;;;;;43.72;20.58;;;;;;;;;;5137598;27;20123;-81
2023/03/21 08:46:25;;;;;;;36.53;19.70;;;;;;;;;;5153160;27;20047;-83
2023/03/21 08:48:51;;;;;;;39.13;19.75;;;;;;;;;;5153147;27;20042;-85
2023/03/21 08:51:17;;;;;;;42.05;20.15;;;;;;;;;;5135678;27;20042;-83
2023/03/21 08:53:43;;;;;;;36.03;18.92;;;;;;;;;;5118696;27;20049;-83
2023/03/21 08:56:10;;;;;;;37.75;19.17;;;;;;;;;;5147152;27;20035;-83
2023/03/21 08:58:36;;;;;;;37.15;19.08;;;;;;;;;;5133642;27;20094;-83
2023/03/21 09:01:03;;;;;;;39.08;18.63;;;;;;;;;;5145160;27;20391;-85
2023/03/21 09:03:29;;;;;;;41.22;18.52;;;;;;;;;;5132797;28;20046;-85
2023/03/21 09:05:57;;;;;;;36.95;18.20;;;;;;;;;;5133297;28;20089;-86
2023/03/21 09:08:23;;;;;;;38.95;18.05;;;;;;;;;;5132665;28;20054;-84
2023/03/21 09:10:53;;;;;;;39.22;18.45;;;;;;;;;;5132728;28;20122;-82
2023/03/21 09:13:19;;;;;;;36.22;16.75;;;;;;;;;;5124345;27;20051;-84
2023/03/21 09:15:46;;;;;;;30.40;15.73;;;;;;;;;;5154312;27;20053;-83
2023/03/21 09:18:14;;;;;;;34.13;16.10;;;;;;;;;;5156458;27;20034;-82
2023/03/21 09:20:41;;;;;;;37.72;17.88;;;;;;;;;;5157732;27;20035;-85
2023/03/21 09:23:09;;;;;;;31.48;15.90;;;;;;;;;;5154734;27;20121;-84
2023/03/21 09:25:36;;;;;;;35.90;16.15;;;;;;;;;;5137011;27;20057;-86
2023/03/21 09:28:04;;;;;;;31.85;16.52;;;;;;;;;;5151341;27;20509;-85
2023/03/21 09:30:31;;;;;;;35.70;16.75;;;;;;;;;;5144688;27;20045;-85
2023/03/21 09:33:11;;;;;;;35.42;16.98;;;;;;;;;;5157570;27;20043;-84
2023/03/21 09:35:38;;;;;;;36.10;17.05;;;;;;;;;;5123902;27;20483;-83
2023/03/21 09:38:04;;;;;;;31.67;16.58;;;;;;;;;;5151836;27;20050;-85
2023/03/21 09:40:40;;;;;;;33.90;16.52;;;;;;;;;;5150907;27;20122;-89
2023/03/21 09:43:26;;;;;;;32.08;15.90;;;;;;;;;;5136719;27;20074;-84
2023/03/21 09:45:52;;;;;;;;;;;;;;;;;;5116226;27;20094;-84
2023/03/21 09:48:33;;;;;;;29.88;15.23;;;;;;;;;;5136364;27;19920;-85
2023/03/21 09:51:00;;;;;;;29.10;15.40;;;;;;;;;;5136586;27;20066;-85
2023/03/21 09:53:29;;;;;;;28.75;14.70;;;;;;;;;;5129366;27;20399;-85
2023/03/21 09:55:56;;;;;;;29.05;15.13;;;;;;;;;;5130244;27;20096;-85
2023/03/21 09:58:24;;;;;;;25.05;14.30;;;;;;;;;;5136541;27;20042;-86
2023/03/21 10:00:55;;;;;;;29.25;13.70;;;;;;;;;;5119618;27;20076;-80
2023/03/21 10:03:29;;;;;;;27.70;14.43;;;;;;;;;;5137629;27;20367;-83
2023/03/21 10:05:57;;;;;;;30.77;15.35;;;;;;;;;;5139006;27;20519;-84
2023/03/21 10:08:37;;;;;;;29.92;14.63;;;;;;;;;;5155703;27;20042;-85
2023/03/21 10:11:11;;;;;;;27.27;13.43;;;;;;;;;;5156804;27;20046;-85
2023/03/21 10:13:40;;;;;;;26.38;15.13;;;;;;;;;;5141472;27;20055;-83
2023/03/21 10:16:19;;;;;;;28.13;14.20;;;;;;;;;;5155739;27;20049;-86
2023/03/21 10:18:46;;;;;;;25.20;14.18;;;;;;;;;;5124442;27;20034;-82
2023/03/21 10:21:20;;;;;;;28.67;14.45;;;;;;;;;;5155366;27;20046;-82
2023/03/21 10:23:47;;;;;;;30.70;14.85;;;;;;;;;;5155592;27;20087;-82
2023/03/21 10:26:14;;;;;;;23.85;13.38;;;;;;;;;;5154617;27;20042;-83
2023/03/21 10:28:42;;;;;;;25.08;13.23;;;;;;;;;;5138296;27;20042;-83
2023/03/21 10:31:10;;;;;;;28.83;13.63;;;;;;;;;;5148239;27;20039;-85
2023/03/21 10:33:41;;;;;;;25.88;12.63;;;;;;;;;;5130344;27;20117;-85
2023/03/21 10:36:10;;;;;;;23.35;12.20;;;;;;;;;;5151772;27;20035;-86
2023/03/21 10:38:39;;;;;;;26.10;12.00;;;;;;;;;;5128387;27;20038;-82
2023/03/21 10:41:05;;;;;;;22.98;11.63;;;;;;;;;;5154756;27;20038;-82
2023/03/21 10:43:33;;;;;;;19.50;11.27;;;;;;;;;;5138823;27;20039;-86
2023/03/21 10:46:05;;;;;;;20.85;10.80;;;;;;;;;;5138358;27;20030;-82
2023/03/21 10:48:34;;;;;;;24.25;10.95;;;;;;;;;;5125918;27;20047;-83
2023/03/21 10:51:01;;;;;;;20.73;11.02;;;;;;;;;;5118182;27;20035;-86
2023/03/21 10:53:29;;;;;;;19.90;10.98;;;;;;;;;;5100818;27;20035;-83
2023/03/21 10:55:56;;;;;;;27.60;12.00;;;;;;;;;;5151817;27;20163;-82
2023/03/21 10:58:26;;;;;;;22.67;10.60;;;;;;;;;;5128164;27;20042;-82
2023/03/21 11:01:05;;;;;;;20.58;11.27;;;;;;;;;;5117975;27;20510;-83
2023/03/21 11:03:35;;;;;;;20.45;10.88;;;;;;;;;;5144268;27;20039;-88
2023/03/21 11:06:14;;;;;;;21.17;10.38;;;;;;;;;;5138546;27;20054;-83
2023/03/21 11:08:45;;;;;;;25.55;10.63;;;;;;;;;;5156037;27;20043;-85
2023/03/21 11:11:18;;;;;;;17.48;10.38;;;;;;;;;;5140773;27;20396;-81
2023/03/21 11:13:44;;;;;;;21.67;10.80;;;;;;;;;;5137409;27;20050;-82
2023/03/21 11:16:12;;;;;;;18.48;10.52;;;;;;;;;;5140810;27;20042;-82
2023/03/21 11:18:43;;;;;;;16.88;8.93;;;;;;;;;;5128968;27;20049;-83
2023/03/21 11:21:10;;;;;;;20.00;9.52;;;;;;;;;;5148908;27;20035;-82
2023/03/21 11:23:39;;;;;;;16.83;8.20;;;;;;;;;;5148837;27;20122;-88
2023/03/21 11:26:09;;;;;;;16.02;8.73;;;;;;;;;;5134555;27;20096;-81
2023/03/21 11:28:40;;;;;;;13.15;7.65;;;;;;;;;;5154140;27;20042;-81
2023/03/21 11:31:10;;;;;;;12.20;7.68;;;;;;;;;;5130266;27;20122;-81
2023/03/21 11:33:39;;;;;;;15.05;7.15;;;;;;;;;;5118567;27;20088;-86
2023/03/21 11:36:28;;;;;;;14.00;6.80;;;;;;;;;;5116974;27;20042;-85
2023/03/21 11:38:58;;;;;;;13.60;7.05;;;;;;;;;;5122841;27;20055;-85
2023/03/21 11:41:34;;;;;;;10.85;6.72;;;;;;;;;;5126142;27;20050;-81
2023/03/21 11:44:01;;;;;;;11.80;6.82;;;;;;;;;;5136516;27;20038;-80
2023/03/21 11:46:29;;;;;;;13.25;6.95;;;;;;;;;;5136200;27;20038;-82
2023/03/21 11:48:56;;;;;;;13.25;6.90;;;;;;;;;;5136243;27;20069;-82
2023/03/21 11:51:40;;;;;;;12.93;6.78;;;;;;;;;;5153516;27;20042;-81
2023/03/21 11:54:21;;;;;;;11.18;7.00;;;;;;;;;;5151356;27;20411;-85
2023/03/21 11:56:50;;;;;;;13.40;6.70;;;;;;;;;;5133736;27;20039;-86
2023/03/21 11:59:35;;;;;;;14.90;7.43;;;;;;;;;;5116747;27;20365;-87
2023/03/21 12:02:19;;;;;;;15.25;8.15;;;;;;;;;;5133641;27;20092;-86
2023/03/21 12:04:54;;;;;;;15.45;7.50;;;;;;;;;;5133852;27;20054;-86
2023/03/21 12:07:20;;;;;;;12.90;7.05;;;;;;;;;;5146582;27;20125;-80
2023/03/21 12:09:51;;;;;;;13.05;7.63;;;;;;;;;;5136233;27;20083;-82
2023/03/21 12:12:26;;;;;;;17.17;8.30;;;;;;;;;;5153020;27;20039;-82
2023/03/21 12:14:55;;;;;;;13.83;8.00;;;;;;;;;;5153270;27;20047;-82
2023/03/21 12:17:43;;;;;;;15.20;7.85;;;;;;;;;;5153939;27;20860;-87
2023/03/21 12:20:29;;;;;;;15.35;8.00;;;;;;;;;;5153693;27;20030;-82
2023/03/21 12:23:07;;;;;;;16.40;7.43;;;;;;;;;;5152558;27;20402;-87
2023/03/21 12:25:33;;;;;;;16.35;8.25;;;;;;;;;;5133430;27;20039;-87
2023/03/21 12:28:26;;;;;;;15.48;8.77;;;;;;;;;;5133398;27;20042;-86
2023/03/21 12:31:00;;;;;;;16.17;8.25;;;;;;;;;;5120825;27;20099;-82
2023/03/21 12:33:45;;;;;;;16.38;8.52;;;;;;;;;;5129714;27;20534;-87
2023/03/21 12:36:16;;;;;;;17.13;8.20;;;;;;;;;;5148327;27;20479;-82
2023/03/21 12:38:54;;;;;;;18.05;8.27;;;;;;;;;;5146793;27;20046;-87
2023/03/21 12:41:26;;;;;;;18.55;8.00;;;;;;;;;;5131179;27;20087;-82
2023/03/21 12:44:01;;;;;;;13.68;8.00;;;;;;;;;;5154011;27;20046;-82
2023/03/21 12:46:27;;;;;;;14.23;8.27;;;;;;;;;;5153397;27;20046;-86
2023/03/21 12:49:08;;;;;;;17.90;10.00;;;;;;;;;;5153527;27;20104;-86
2023/03/21 12:51:37;;;;;;;19.50;9.43;;;;;;;;;;5149670;27;20099;-87
2023/03/21 12:54:22;;;;;;;23.08;10.35;;;;;;;;;;5133036;27;20039;-87
2023/03/21 12:56:57;;;;;;;16.65;9.10;;;;;;;;;;5133213;27;20384;-87
2023/03/21 12:59:23;;;;;;;17.33;9.20;;;;;;;;;;5116158;28;20092;-87
2023/03/21 13:01:51;;;;;;;13.73;8.48;;;;;;;;;;5136597;27;20038;-82
2023/03/21 13:04:20;;;;;;;15.02;8.38;;;;;;;;;;5152611;27;20045;-82
2023/03/21 13:06:46;;;;;;;18.35;8.45;;;;;;;;;;5135428;27;20039;-81
2023/03/21 13:09:16;;;;;;;18.45;9.27;;;;;;;;;;5135932;27;20111;-87
2023/03/21 13:11:43;;;;;;;13.95;8.32;;;;;;;;;;5138197;27;20042;-81
2023/03/21 13:14:12;;;;;;;14.00;8.60;;;;;;;;;;5150184;27;20487;-82
2023/03/21 13:16:45;;;;;;;20.25;8.95;;;;;;;;;;5152664;27;20041;-81
2023/03/21 13:19:22;;;;;;;14.90;8.90;;;;;;;;;;5152786;27;20042;-81
2023/03/21 13:21:58;;;;;;;19.60;9.55;;;;;;;;;;5152428;27;20050;-81
2023/03/21 13:24:26;;;;;;;15.98;8.95;;;;;;;;;;5127165;28;20085;-87
2023/03/21 13:27:03;;;;;;;15.18;8.07;;;;;;;;;;5115684;28;20511;-85
2023/03/21 13:29:33;;;;;;;13.90;8.80;;;;;;;;;;5132603;28;20047;-87
2023/03/21 13:32:06;;;;;;;14.70;9.27;;;;;;;;;;5132602;28;20039;-87
2023/03/21 13:34:33;;;;;;;17.23;8.95;;;;;;;;;;5141392;27;20049;-81
2023/03/21 13:37:00;;;;;;;16.65;8.77;;;;;;;;;;5153656;27;20039;-81
2023/03/21 13:39:28;;;;;;;16.77;8.85;;;;;;;;;;5146177;27;20039;-87
2023/03/21 13:41:54;;;;;;;15.35;9.13;;;;;;;;;;5146886;27;20043;-86
2023/03/21 13:44:26;;;;;;;16.33;8.50;;;;;;;;;;5139141;27;20078;-86
2023/03/21 13:47:03;;;;;;;15.77;8.50;;;;;;;;;;5116089;28;20558;-86
2023/03/21 13:49:36;;;;;;;14.00;8.50;;;;;;;;;;5115357;28;20050;-86
2023/03/21 13:52:22;;;;;;;14.98;8.75;;;;;;;;;;5133843;28;20403;-87
2023/03/21 13:54:52;;;;;;;17.15;9.20;;;;;;;;;;5118712;28;20147;-87
2023/03/21 13:57:37;;;;;;;17.55;9.43;;;;;;;;;;5132101;28;20074;-87
2023/03/21 14:00:24;;;;;;;16.00;8.73;;;;;;;;;;5132764;28;20399;-88
2023/03/21 14:03:02;;;;;;;15.82;8.57;;;;;;;;;;5140411;27;20041;-87
2023/03/21 14:05:28;;;;;;;14.43;8.93;;;;;;;;;;5156759;27;20043;-83
2023/03/21 14:07:57;;;;;;;15.93;9.13;;;;;;;;;;5146772;27;20473;-81
2023/03/21 14:10:26;;;;;;;15.00;8.95;;;;;;;;;;5136889;27;20394;-81
2023/03/21 14:12:52;;;;;;;16.88;9.00;;;;;;;;;;5157972;27;20042;-86
2023/03/21 14:15:23;;;;;;;13.82;9.20;;;;;;;;;;5159772;27;20038;-81
2023/03/21 14:17:54;;;;;;;15.35;9.63;;;;;;;;;;5118454;27;20047;-88
2023/03/21 14:20:30;;;;;;;14.80;9.15;;;;;;;;;;5101708;27;20043;-82
2023/03/21 14:22:57;;;;;;;17.33;9.85;;;;;;;;;;5131647;27;20053;-81
2023/03/21 14:25:24;;;;;;;13.45;9.13;;;;;;;;;;5159563;27;20502;-82
2023/03/21 14:27:54;;;;;;;13.18;8.75;;;;;;;;;;5141887;27;20049;-86
2023/03/21 14:30:25;;;;;;;16.88;9.50;;;;;;;;;;5142605;27;20478;-81
2023/03/21 14:32:57;;;;;;;15.88;9.75;;;;;;;;;;5141715;27;20038;-87
2023/03/21 14:35:25;;;;;;;16.58;9.70;;;;;;;;;;5148046;27;20041;-81